Time;durP1;ratioP1;P1;durP2;ratioP2;P2;SDS_P1;SDS_P2;PMS_P1;PMS_P2;Temp;Humidity;BMP_temperature;BMP_pressure;BME280_temperature;BME280_humidity;BME280_pressure;Samples;Min_cycle;Max_cycle;Signal;HPM_P1;HPM_P2
2022/12/14 00:03:45;;;;;;;27.58;12.52;;;;;;;;;;10384082;28;20447;-72
2022/12/14 00:08:46;;;;;;;27.23;14.45;;;;;;;;;;10401510;28;20029;-73
2022/12/14 00:13:50;;;;;;;32.10;13.38;;;;;;;;;;10371572;28;20049;-73
2022/12/14 00:18:52;;;;;;;32.30;12.93;;;;;;;;;;10382685;28;20033;-78
2022/12/14 00:23:52;;;;;;;26.42;13.10;;;;;;;;;;10412243;28;20070;-74
2022/12/14 00:28:54;;;;;;;27.65;14.30;;;;;;;;;;10404763;28;20025;-73
2022/12/14 00:33:54;;;;;;;25.08;12.88;;;;;;;;;;10406547;28;20592;-74
2022/12/14 00:38:54;;;;;;;21.77;13.57;;;;;;;;;;10384200;28;20163;-78
2022/12/14 00:43:55;;;;;;;23.27;12.43;;;;;;;;;;10419185;28;20112;-77
2022/12/14 00:48:55;;;;;;;33.73;13.70;;;;;;;;;;10399991;28;20496;-73
2022/12/14 00:53:55;;;;;;;23.35;11.48;;;;;;;;;;10408713;28;20022;-77
2022/12/14 00:58:55;;;;;;;19.00;11.20;;;;;;;;;;10382880;28;20044;-76
2022/12/14 01:04:15;;;;;;;19.80;10.77;;;;;;;;;;10400738;28;20033;-76
2022/12/14 01:09:16;;;;;;;19.30;10.98;;;;;;;;;;10382092;28;20021;-73
2022/12/14 01:14:17;;;;;;;16.38;9.52;;;;;;;;;;10382923;28;20018;-76
2022/12/14 01:19:18;;;;;;;15.90;10.43;;;;;;;;;;10383282;28;20025;-79
2022/12/14 01:24:18;;;;;;;18.90;9.57;;;;;;;;;;10408584;28;20052;-73
2022/12/14 01:29:18;;;;;;;17.15;7.85;;;;;;;;;;10399732;28;20083;-72
2022/12/14 01:34:18;;;;;;;15.15;8.45;;;;;;;;;;10382506;28;20101;-73
2022/12/14 01:39:19;;;;;;;15.83;8.80;;;;;;;;;;10387998;28;20033;-76
2022/12/14 01:44:19;;;;;;;19.73;11.10;;;;;;;;;;10383502;28;20017;-73
2022/12/14 01:49:28;;;;;;;15.23;8.98;;;;;;;;;;10399753;28;20029;-75
2022/12/14 01:54:31;;;;;;;15.88;8.52;;;;;;;;;;10407610;28;20051;-78
2022/12/14 01:59:33;;;;;;;19.95;9.48;;;;;;;;;;10422906;28;20059;-72
2022/12/14 02:04:36;;;;;;;22.23;9.63;;;;;;;;;;10407662;28;20033;-76
2022/12/14 02:09:37;;;;;;;16.60;9.43;;;;;;;;;;10388770;28;20083;-72
2022/12/14 02:14:38;;;;;;;16.80;9.02;;;;;;;;;;10412020;28;20064;-74
2022/12/14 02:19:38;;;;;;;25.33;10.38;;;;;;;;;;10428901;28;20115;-72
2022/12/14 02:24:58;;;;;;;20.33;10.30;;;;;;;;;;10389286;28;20053;-72
2022/12/14 02:30:11;;;;;;;17.60;9.40;;;;;;;;;;10399034;28;20510;-76
2022/12/14 02:35:11;;;;;;;13.77;7.90;;;;;;;;;;10425949;28;20029;-74
2022/12/14 02:40:12;;;;;;;17.35;8.98;;;;;;;;;;10428769;28;20036;-73
2022/12/14 02:45:30;;;;;;;19.65;9.57;;;;;;;;;;10409034;28;20032;-73
2022/12/14 02:50:34;;;;;;;18.42;9.10;;;;;;;;;;10387432;28;20022;-73
2022/12/14 02:55:36;;;;;;;15.98;8.95;;;;;;;;;;10387788;28;20033;-72
2022/12/14 03:00:37;;;;;;;17.92;8.95;;;;;;;;;;10386921;28;20535;-75
2022/12/14 03:05:37;;;;;;;19.30;9.48;;;;;;;;;;10405219;28;20029;-75
2022/12/14 03:11:04;;;;;;;15.82;9.38;;;;;;;;;;10385667;28;20025;-74
2022/12/14 03:16:10;;;;;;;16.05;8.13;;;;;;;;;;10381934;28;20435;-73
2022/12/14 03:21:13;;;;;;;23.63;9.90;;;;;;;;;;10385704;28;20058;-72
2022/12/14 03:26:13;;;;;;;20.40;10.27;;;;;;;;;;10385900;28;20029;-73
2022/12/14 03:31:37;;;;;;;16.90;9.55;;;;;;;;;;10385962;28;20027;-73
2022/12/14 03:36:47;;;;;;;17.00;9.90;;;;;;;;;;10371733;28;20037;-72
2022/12/14 03:41:50;;;;;;;23.45;10.32;;;;;;;;;;10384920;28;20025;-71
2022/12/14 03:47:03;;;;;;;24.15;12.13;;;;;;;;;;10412950;28;20033;-73
2022/12/14 03:52:09;;;;;;;22.02;10.90;;;;;;;;;;10418100;28;20032;-76
2022/12/14 03:57:10;;;;;;;24.00;12.95;;;;;;;;;;10409731;28;20389;-72
2022/12/14 04:02:14;;;;;;;25.15;12.77;;;;;;;;;;10418095;28;20025;-72
2022/12/14 04:07:14;;;;;;;21.13;11.13;;;;;;;;;;10384321;28;20064;-71
2022/12/14 04:23:01;;;;;;;18.08;10.63;;;;;;;;;;10402752;28;20451;-72
2022/12/14 04:33:46;;;;;;;17.27;8.98;;;;;;;;;;10402993;28;20017;-71
2022/12/14 04:38:49;;;;;;;18.20;8.65;;;;;;;;;;10402200;28;20025;-76
2022/12/14 04:43:51;;;;;;;18.08;9.90;;;;;;;;;;10400679;28;20083;-77
2022/12/14 04:49:01;;;;;;;14.65;7.28;;;;;;;;;;10421600;28;20593;-76
2022/12/14 04:54:13;;;;;;;14.68;8.82;;;;;;;;;;10414807;28;20048;-73
2022/12/14 04:59:13;;;;;;;15.07;8.18;;;;;;;;;;10399966;28;20410;-72
2022/12/14 05:04:32;;;;;;;16.63;9.10;;;;;;;;;;10401292;28;20090;-73
2022/12/14 05:09:34;;;;;;;12.27;8.23;;;;;;;;;;10424217;28;20032;-73
2022/12/14 05:14:53;;;;;;;15.80;8.85;;;;;;;;;;10424058;28;20044;-73
2022/12/14 05:19:54;;;;;;;16.60;9.00;;;;;;;;;;10409095;28;20527;-73
2022/12/14 05:24:54;;;;;;;11.03;7.57;;;;;;;;;;10417877;28;20041;-73
2022/12/14 05:29:54;;;;;;;10.48;7.45;;;;;;;;;;10413986;28;20029;-73
2022/12/14 05:34:55;;;;;;;16.13;9.40;;;;;;;;;;10405995;28;20116;-76
2022/12/14 05:39:55;;;;;;;16.07;9.07;;;;;;;;;;10403598;28;20021;-74
2022/12/14 05:44:55;;;;;;;14.37;9.40;;;;;;;;;;10421019;28;20445;-74
2022/12/14 05:49:58;;;;;;;12.83;7.80;;;;;;;;;;10426647;28;20275;-75
2022/12/14 05:54:58;;;;;;;17.77;9.77;;;;;;;;;;10432734;28;20266;-78
2022/12/14 05:59:59;;;;;;;14.90;8.90;;;;;;;;;;10388719;28;20367;-79
2022/12/14 06:04:59;;;;;;;15.63;9.85;;;;;;;;;;10425949;28;20033;-76
2022/12/14 06:09:59;;;;;;;19.02;11.20;;;;;;;;;;10427701;28;20055;-75
2022/12/14 06:14:59;;;;;;;19.25;10.55;;;;;;;;;;10393997;28;20638;-76
2022/12/14 06:20:00;;;;;;;18.52;11.32;;;;;;;;;;10406730;28;20503;-78
2022/12/14 06:25:00;;;;;;;16.17;10.68;;;;;;;;;;10409869;28;20611;-75
2022/12/14 06:30:00;;;;;;;19.05;11.40;;;;;;;;;;10419055;28;20291;-73
2022/12/14 06:35:01;;;;;;;19.07;11.73;;;;;;;;;;10428592;28;20028;-75
2022/12/14 06:40:01;;;;;;;21.48;12.75;;;;;;;;;;10422486;28;20872;-75
2022/12/14 06:45:01;;;;;;;23.20;12.68;;;;;;;;;;10409635;28;20025;-79
2022/12/14 06:50:02;;;;;;;26.37;12.93;;;;;;;;;;10385460;28;20084;-73
2022/12/14 06:55:02;;;;;;;22.30;12.63;;;;;;;;;;10403852;28;20264;-74
2022/12/14 07:00:02;;;;;;;32.83;15.48;;;;;;;;;;10369905;28;20264;-74
2022/12/14 07:05:03;;;;;;;21.77;13.23;;;;;;;;;;10404325;28;20029;-78
2022/12/14 07:10:05;;;;;;;24.98;14.20;;;;;;;;;;10403424;28;20034;-71
2022/12/14 07:15:06;;;;;;;26.95;14.70;;;;;;;;;;10402268;28;20032;-78
2022/12/14 07:20:07;;;;;;;28.92;17.15;;;;;;;;;;10369573;28;20050;-74
2022/12/14 07:25:08;;;;;;;35.10;16.17;;;;;;;;;;10405454;28;20018;-78
2022/12/14 07:30:08;;;;;;;28.73;15.88;;;;;;;;;;10403829;28;20009;-77
2022/12/14 07:35:08;;;;;;;32.78;15.13;;;;;;;;;;10384987;28;20026;-75
2022/12/14 07:40:09;;;;;;;22.38;11.65;;;;;;;;;;10384495;28;20450;-74
2022/12/14 07:45:09;;;;;;;20.33;10.73;;;;;;;;;;10385017;28;20076;-74
2022/12/14 07:50:09;;;;;;;26.75;13.60;;;;;;;;;;10402461;28;20105;-77
2022/12/14 07:55:10;;;;;;;31.52;16.38;;;;;;;;;;10384221;28;20028;-81
2022/12/14 08:00:10;;;;;;;32.22;14.60;;;;;;;;;;10395220;28;20051;-79
2022/12/14 08:05:11;;;;;;;29.92;14.30;;;;;;;;;;10441926;28;20028;-77
2022/12/14 08:10:11;;;;;;;27.05;16.33;;;;;;;;;;10383959;28;20025;-79
2022/12/14 08:15:12;;;;;;;28.17;16.95;;;;;;;;;;10383440;28;20021;-73
2022/12/14 08:20:12;;;;;;;26.55;13.43;;;;;;;;;;10401211;28;20057;-73
2022/12/14 08:25:12;;;;;;;29.98;16.35;;;;;;;;;;10402055;28;20032;-77
2022/12/14 08:30:14;;;;;;;25.25;13.57;;;;;;;;;;10400841;28;20103;-75
2022/12/14 08:35:14;;;;;;;32.05;16.55;;;;;;;;;;10383347;28;20480;-72
2022/12/14 08:40:14;;;;;;;25.03;14.13;;;;;;;;;;10396719;28;20502;-75
2022/12/14 08:45:15;;;;;;;23.83;13.87;;;;;;;;;;10398462;28;20314;-73
2022/12/14 08:50:15;;;;;;;29.20;15.15;;;;;;;;;;10381178;28;20025;-77
2022/12/14 08:55:16;;;;;;;24.92;13.93;;;;;;;;;;10401351;28;20169;-76
2022/12/14 09:00:17;;;;;;;26.30;13.03;;;;;;;;;;10424774;28;20032;-79
2022/12/14 09:05:17;;;;;;;24.10;11.95;;;;;;;;;;10404293;28;20040;-73
2022/12/14 09:10:18;;;;;;;20.70;12.77;;;;;;;;;;10386383;28;20071;-76
2022/12/14 09:15:19;;;;;;;24.02;14.40;;;;;;;;;;10415502;28;20482;-77
2022/12/14 09:20:19;;;;;;;39.10;14.82;;;;;;;;;;10430614;28;20445;-76
2022/12/14 09:25:20;;;;;;;21.83;14.07;;;;;;;;;;10431447;28;20037;-76
2022/12/14 09:30:20;;;;;;;26.08;13.35;;;;;;;;;;10432484;28;20025;-72
2022/12/14 09:35:21;;;;;;;22.87;12.83;;;;;;;;;;10427843;28;20023;-73
2022/12/14 09:40:23;;;;;;;25.85;12.02;;;;;;;;;;10390061;28;20260;-75
2022/12/14 09:45:46;;;;;;;21.73;11.52;;;;;;;;;;10389795;28;20025;-77
2022/12/14 09:50:48;;;;;;;26.77;12.10;;;;;;;;;;10407147;28;20534;-76
2022/12/14 09:55:53;;;;;;;32.20;13.18;;;;;;;;;;10408939;28;20013;-75
2022/12/14 10:00:57;;;;;;;19.77;11.63;;;;;;;;;;10430943;28;20395;-73
2022/12/14 10:06:06;;;;;;;17.10;10.95;;;;;;;;;;10409734;28;20025;-80
2022/12/14 10:11:20;;;;;;;17.60;11.80;;;;;;;;;;10393636;28;20017;-81
2022/12/14 10:16:26;;;;;;;23.35;9.95;;;;;;;;;;10393418;28;20043;-76
2022/12/14 10:21:35;;;;;;;16.35;8.55;;;;;;;;;;10394524;28;20106;-78
2022/12/14 10:26:41;;;;;;;21.20;10.15;;;;;;;;;;10442254;28;20029;-77
2022/12/14 10:32:08;;;;;;;20.30;10.32;;;;;;;;;;10395106;28;20022;-75
2022/12/14 10:37:27;;;;;;;17.02;8.50;;;;;;;;;;10373074;28;20571;-78
2022/12/14 10:42:47;;;;;;;21.40;10.43;;;;;;;;;;10387367;28;20025;-78
2022/12/14 10:47:50;;;;;;;22.73;12.00;;;;;;;;;;10387105;28;20022;-76
2022/12/14 10:52:52;;;;;;;15.32;8.90;;;;;;;;;;10428249;28;20028;-73
2022/12/14 10:57:52;;;;;;;16.40;8.95;;;;;;;;;;10428463;28;20035;-72
2022/12/14 11:02:54;;;;;;;18.88;10.40;;;;;;;;;;10394980;28;20112;-75
2022/12/14 11:07:54;;;;;;;19.27;10.18;;;;;;;;;;10389034;28;20022;-78
2022/12/14 11:12:58;;;;;;;15.85;10.10;;;;;;;;;;10386622;28;20021;-74
2022/12/14 11:18:03;;;;;;;21.98;9.27;;;;;;;;;;10385997;28;20036;-78
2022/12/14 11:23:05;;;;;;;11.43;7.72;;;;;;;;;;10385838;28;20064;-79
2022/12/14 11:28:24;;;;;;;18.55;11.20;;;;;;;;;;10387196;28;20029;-81
2022/12/14 11:33:27;;;;;;;21.08;10.75;;;;;;;;;;10418151;28;20894;-79
2022/12/14 11:38:30;;;;;;;17.80;8.55;;;;;;;;;;10421041;28;20712;-77
2022/12/14 11:43:39;;;;;;;14.88;7.25;;;;;;;;;;10392116;28;20017;-79
2022/12/14 11:48:46;;;;;;;21.35;7.72;;;;;;;;;;10401949;28;20059;-78
2022/12/14 11:54:00;;;;;;;12.20;7.45;;;;;;;;;;10419244;28;20016;-72
2022/12/14 11:59:00;;;;;;;13.52;7.25;;;;;;;;;;10408830;28;20107;-74
2022/12/14 12:04:00;;;;;;;12.82;7.82;;;;;;;;;;10425436;28;20025;-79
2022/12/14 12:09:01;;;;;;;15.65;8.18;;;;;;;;;;10420328;28;20052;-73
2022/12/14 12:14:19;;;;;;;22.17;8.63;;;;;;;;;;10406004;28;20462;-78
2022/12/14 12:19:29;;;;;;;25.80;10.77;;;;;;;;;;10424165;28;20086;-78
2022/12/14 12:24:48;;;;;;;19.70;11.48;;;;;;;;;;10435735;28;20287;-78
2022/12/14 12:30:00;;;;;;;17.02;9.57;;;;;;;;;;10407678;28;20116;-77
2022/12/14 12:35:19;;;;;;;18.85;8.05;;;;;;;;;;10383296;28;20119;-74
2022/12/14 12:40:32;;;;;;;14.65;9.07;;;;;;;;;;10401893;28;20036;-77
2022/12/14 12:45:36;;;;;;;14.65;8.65;;;;;;;;;;10382246;28;20048;-74
2022/12/14 12:50:39;;;;;;;18.25;10.70;;;;;;;;;;10403277;28;20029;-74
2022/12/14 12:55:41;;;;;;;15.45;9.40;;;;;;;;;;10382389;28;20032;-74
2022/12/14 13:00:43;;;;;;;22.13;11.38;;;;;;;;;;10387243;28;20059;-73
2022/12/14 13:05:44;;;;;;;20.75;8.98;;;;;;;;;;10424119;28;20037;-76
2022/12/14 13:10:45;;;;;;;18.98;9.00;;;;;;;;;;10444935;28;20494;-75
2022/12/14 13:15:51;;;;;;;18.25;8.32;;;;;;;;;;10443594;28;20827;-74
2022/12/14 13:20:52;;;;;;;19.83;8.98;;;;;;;;;;10453974;28;20143;-74
2022/12/14 13:26:11;;;;;;;18.92;7.50;;;;;;;;;;10407812;28;20033;-79
2022/12/14 13:31:34;;;;;;;15.02;6.88;;;;;;;;;;10420015;28;20033;-74
2022/12/14 13:36:50;;;;;;;14.95;7.25;;;;;;;;;;10422951;28;20029;-76
2022/12/14 13:42:01;;;;;;;21.65;7.88;;;;;;;;;;10413405;28;20086;-80
2022/12/14 13:47:04;;;;;;;15.95;7.00;;;;;;;;;;10382329;28;20025;-78
2022/12/14 13:52:04;;;;;;;14.15;7.03;;;;;;;;;;10391967;28;20410;-75
2022/12/14 13:57:05;;;;;;;11.02;6.78;;;;;;;;;;10404322;28;20040;-75
2022/12/14 14:02:25;;;;;;;15.32;9.00;;;;;;;;;;10422100;28;20076;-72
2022/12/14 14:07:25;;;;;;;15.88;7.45;;;;;;;;;;10417725;28;20040;-73
2022/12/14 14:12:30;;;;;;;15.27;7.95;;;;;;;;;;10419936;28;20058;-79
2022/12/14 14:17:39;;;;;;;17.98;7.85;;;;;;;;;;10419717;28;20503;-70
2022/12/14 14:22:59;;;;;;;11.52;7.18;;;;;;;;;;10416074;28;20550;-78
2022/12/14 14:28:00;;;;;;;11.13;7.00;;;;;;;;;;10414483;28;20065;-77
2022/12/14 14:33:02;;;;;;;14.60;7.70;;;;;;;;;;10408724;28;20131;-76
2022/12/14 14:38:24;;;;;;;13.43;7.30;;;;;;;;;;10422614;28;20041;-75
2022/12/14 14:43:28;;;;;;;13.20;7.18;;;;;;;;;;10433086;28;21689;-77
2022/12/14 14:48:32;;;;;;;19.70;7.38;;;;;;;;;;10417032;28;20463;-75
2022/12/14 14:53:33;;;;;;;15.18;8.70;;;;;;;;;;10420967;28;20037;-76
2022/12/14 14:58:35;;;;;;;15.85;8.07;;;;;;;;;;10432038;28;20033;-76
2022/12/14 15:03:44;;;;;;;13.00;8.75;;;;;;;;;;10436112;28;20395;-73
2022/12/14 15:09:10;;;;;;;15.05;8.45;;;;;;;;;;10415950;28;20035;-77
2022/12/14 15:14:24;;;;;;;11.93;7.60;;;;;;;;;;10403098;28;20045;-74
2022/12/14 15:19:26;;;;;;;12.85;8.50;;;;;;;;;;10434206;28;20089;-72
2022/12/14 15:24:27;;;;;;;17.27;9.52;;;;;;;;;;10423079;28;20518;-71
2022/12/14 15:29:28;;;;;;;13.00;8.25;;;;;;;;;;10432136;28;20033;-71
2022/12/14 15:34:28;;;;;;;15.15;8.07;;;;;;;;;;10437719;28;20112;-75
2022/12/14 15:39:31;;;;;;;15.73;8.52;;;;;;;;;;10415562;28;20506;-71
2022/12/14 15:44:31;;;;;;;18.98;8.10;;;;;;;;;;10423606;28;20554;-74
2022/12/14 15:49:32;;;;;;;15.63;9.00;;;;;;;;;;10412045;28;20035;-75
2022/12/14 15:54:32;;;;;;;16.97;10.13;;;;;;;;;;10416918;28;20025;-77
2022/12/14 15:59:34;;;;;;;10.45;6.25;;;;;;;;;;10418797;28;20889;-77
2022/12/14 16:04:35;;;;;;;17.90;9.68;;;;;;;;;;10416294;28;20032;-76
2022/12/14 16:09:40;;;;;;;11.35;6.72;;;;;;;;;;10402976;28;20066;-73
2022/12/14 16:14:53;;;;;;;14.77;7.78;;;;;;;;;;10421204;28;20071;-73
2022/12/14 16:19:55;;;;;;;18.35;9.05;;;;;;;;;;10432087;28;20551;-74
2022/12/14 16:24:55;;;;;;;14.30;7.70;;;;;;;;;;10416925;28;20497;-74
2022/12/14 16:30:05;;;;;;;15.13;9.13;;;;;;;;;;10437670;28;20040;-73
2022/12/14 16:35:14;;;;;;;15.45;9.30;;;;;;;;;;10420279;28;20453;-71
2022/12/14 16:40:33;;;;;;;11.93;7.90;;;;;;;;;;10411901;28;20040;-75
2022/12/14 16:45:42;;;;;;;18.63;10.38;;;;;;;;;;10435540;28;20112;-76
2022/12/14 16:50:43;;;;;;;22.15;10.32;;;;;;;;;;10409504;28;20033;-77
2022/12/14 16:56:04;;;;;;;14.98;9.13;;;;;;;;;;10412754;28;20048;-78
2022/12/14 17:01:05;;;;;;;13.88;8.88;;;;;;;;;;10418073;28;20029;-80
2022/12/14 17:06:05;;;;;;;15.77;8.13;;;;;;;;;;10415935;28;20526;-74
2022/12/14 17:11:06;;;;;;;17.83;8.38;;;;;;;;;;10415188;28;20026;-72
2022/12/14 17:16:06;;;;;;;13.45;8.05;;;;;;;;;;10407452;28;20125;-76
2022/12/14 17:21:09;;;;;;;17.42;8.80;;;;;;;;;;10422531;28;20052;-73
2022/12/14 17:26:20;;;;;;;10.82;7.00;;;;;;;;;;10417240;28;20036;-76
2022/12/14 17:31:22;;;;;;;14.65;8.25;;;;;;;;;;10435094;28;20029;-73
2022/12/14 17:36:24;;;;;;;10.02;6.88;;;;;;;;;;10435331;28;20025;-71
2022/12/14 17:41:25;;;;;;;14.82;7.53;;;;;;;;;;10428059;28;20410;-75
2022/12/14 17:46:25;;;;;;;16.17;7.93;;;;;;;;;;10424312;28;20085;-77
2022/12/14 17:51:27;;;;;;;12.95;7.55;;;;;;;;;;10416081;28;20072;-77
2022/12/14 17:56:27;;;;;;;17.27;8.05;;;;;;;;;;10437931;28;20051;-76
2022/12/14 18:01:27;;;;;;;14.68;9.60;;;;;;;;;;10422661;28;20112;-77
2022/12/14 18:06:28;;;;;;;15.25;9.10;;;;;;;;;;10428382;28;20028;-78
2022/12/14 18:11:29;;;;;;;15.63;8.00;;;;;;;;;;10444144;28;20452;-76
2022/12/14 18:16:30;;;;;;;20.23;9.97;;;;;;;;;;10420740;28;20017;-76
2022/12/14 18:21:32;;;;;;;15.52;8.55;;;;;;;;;;10411645;28;20849;-75
2022/12/14 18:26:32;;;;;;;19.77;11.10;;;;;;;;;;10410549;28;20040;-77
2022/12/14 18:31:35;;;;;;;25.08;11.05;;;;;;;;;;10415967;28;20376;-75
2022/12/14 18:36:36;;;;;;;20.40;9.93;;;;;;;;;;10428002;28;20032;-78
2022/12/14 18:41:37;;;;;;;24.30;10.65;;;;;;;;;;10431602;28;20417;-75
2022/12/14 18:46:38;;;;;;;20.30;11.40;;;;;;;;;;10440902;28;20024;-73
2022/12/14 18:51:38;;;;;;;26.85;11.65;;;;;;;;;;10407189;28;20028;-72
2022/12/14 18:56:42;;;;;;;25.07;11.97;;;;;;;;;;10427840;28;20474;-72
2022/12/14 19:01:42;;;;;;;25.88;13.43;;;;;;;;;;10439138;28;20793;-77
2022/12/14 19:06:42;;;;;;;23.80;12.17;;;;;;;;;;10421758;28;20033;-73
2022/12/14 19:11:43;;;;;;;35.65;15.10;;;;;;;;;;10421194;28;20021;-76
2022/12/14 19:16:44;;;;;;;29.77;13.35;;;;;;;;;;10419409;28;20083;-77
2022/12/14 19:21:44;;;;;;;27.55;13.90;;;;;;;;;;10412521;28;20178;-76
2022/12/14 19:26:44;;;;;;;31.40;13.77;;;;;;;;;;10435215;28;20037;-71
2022/12/14 19:31:44;;;;;;;29.67;12.73;;;;;;;;;;10415155;28;20116;-73
2022/12/14 19:36:45;;;;;;;33.15;14.10;;;;;;;;;;10408489;28;20045;-75
2022/12/14 19:41:46;;;;;;;30.50;16.33;;;;;;;;;;10433545;28;20029;-73
2022/12/14 19:46:47;;;;;;;27.90;15.38;;;;;;;;;;10441023;28;20407;-71
2022/12/14 19:51:47;;;;;;;25.88;11.85;;;;;;;;;;10441425;28;20025;-72
2022/12/14 19:56:49;;;;;;;22.97;12.17;;;;;;;;;;10442520;28;20024;-76
2022/12/14 20:01:49;;;;;;;26.45;13.73;;;;;;;;;;10439570;28;20499;-73
2022/12/14 20:06:49;;;;;;;26.42;13.05;;;;;;;;;;10433377;28;20064;-75
2022/12/14 20:11:49;;;;;;;25.83;12.55;;;;;;;;;;10420452;28;20534;-74
2022/12/14 20:16:51;;;;;;;26.83;12.30;;;;;;;;;;10418658;28;20024;-71
2022/12/14 20:21:51;;;;;;;27.95;13.68;;;;;;;;;;10420897;28;20053;-72
2022/12/14 20:26:52;;;;;;;25.65;14.35;;;;;;;;;;10419501;28;20063;-74
2022/12/14 20:31:54;;;;;;;24.63;13.48;;;;;;;;;;10421392;28;20449;-77
2022/12/14 20:36:54;;;;;;;23.80;12.35;;;;;;;;;;10437998;28;20102;-72
2022/12/14 20:41:54;;;;;;;26.38;12.15;;;;;;;;;;10419934;28;20091;-71
2022/12/14 20:46:55;;;;;;;20.45;10.93;;;;;;;;;;10419757;28;20043;-72
2022/12/14 20:51:56;;;;;;;30.60;13.55;;;;;;;;;;10415580;28;20059;-77
2022/12/14 20:56:56;;;;;;;18.42;10.60;;;;;;;;;;10413970;28;20570;-74
2022/12/14 21:01:56;;;;;;;23.00;11.18;;;;;;;;;;10418828;28;20475;-70
2022/12/14 21:06:56;;;;;;;24.02;12.73;;;;;;;;;;10420855;28;20514;-72
2022/12/14 21:17:15;;;;;;;20.83;10.48;;;;;;;;;;10432514;28;20475;-70
2022/12/14 21:22:17;;;;;;;19.13;10.50;;;;;;;;;;10428899;28;20049;-73
2022/12/14 21:27:19;;;;;;;15.93;8.60;;;;;;;;;;10426304;28;20033;-71
2022/12/14 21:32:21;;;;;;;20.08;10.75;;;;;;;;;;10449021;28;20032;-72
2022/12/14 21:37:22;;;;;;;21.20;10.05;;;;;;;;;;10446273;28;20364;-70
2022/12/14 21:42:23;;;;;;;25.30;12.35;;;;;;;;;;10428998;28;20096;-73
2022/12/14 21:47:24;;;;;;;22.77;10.57;;;;;;;;;;10435374;28;20029;-71
2022/12/14 21:52:25;;;;;;;23.98;12.45;;;;;;;;;;10424181;28;20024;-73
2022/12/14 22:02:45;;;;;;;21.67;12.45;;;;;;;;;;10444859;28;20041;-73
2022/12/14 22:07:45;;;;;;;22.63;11.68;;;;;;;;;;10425333;28;20021;-75
2022/12/14 22:12:45;;;;;;;26.05;12.55;;;;;;;;;;10423128;28;20738;-71
2022/12/14 22:17:47;;;;;;;24.50;12.68;;;;;;;;;;10407593;28;20507;-72
2022/12/14 22:22:47;;;;;;;27.55;12.13;;;;;;;;;;10401932;28;20042;-74
2022/12/14 22:27:48;;;;;;;33.15;15.20;;;;;;;;;;10394903;28;20026;-72
2022/12/14 22:32:48;;;;;;;28.43;13.27;;;;;;;;;;10392904;28;20024;-76
2022/12/14 22:37:48;;;;;;;26.77;14.15;;;;;;;;;;10387612;28;20411;-71
2022/12/14 22:42:48;;;;;;;28.17;14.23;;;;;;;;;;10366279;28;20074;-72
2022/12/14 22:47:49;;;;;;;32.45;14.98;;;;;;;;;;10366217;28;20068;-76
2022/12/14 22:52:49;;;;;;;31.17;15.02;;;;;;;;;;10387157;28;20446;-74
2022/12/14 22:57:49;;;;;;;29.67;13.68;;;;;;;;;;10373671;28;20021;-73
2022/12/14 23:02:50;;;;;;;34.87;16.63;;;;;;;;;;10398966;28;20033;-78
2022/12/14 23:07:52;;;;;;;29.60;13.80;;;;;;;;;;10402466;28;20021;-76
